Time;durP1;ratioP1;P1;durP2;ratioP2;P2;SDS_P1;SDS_P2;PMS_P1;PMS_P2;Temp;Humidity;BMP_temperature;BMP_pressure;BME280_temperature;BME280_humidity;BME280_pressure;Samples;Min_cycle;Max_cycle;Signal;HPM_P1;HPM_P2
2022/05/02 00:02:55;;;;;;;13.90;12.37;;;;;;;;;;5000707;28;20198;-86
2022/05/02 00:05:59;;;;;;;15.83;13.67;;;;;;;;;;4981871;28;20217;-86
2022/05/02 00:09:03;;;;;;;17.87;13.70;;;;;;;;;;5021965;28;20196;-87
2022/05/02 00:12:08;;;;;;;16.60;13.50;;;;;;;;;;5055385;28;20208;-87
2022/05/02 00:15:12;;;;;;;15.80;13.27;;;;;;;;;;5020956;28;20212;-87
2022/05/02 00:18:16;;;;;;;16.80;13.80;;;;;;;;;;5010956;28;20197;-86
2022/05/02 00:21:20;;;;;;;16.40;14.00;;;;;;;;;;5019529;28;20188;-87
2022/05/02 00:24:24;;;;;;;15.17;13.17;;;;;;;;;;5042531;28;20189;-86
2022/05/02 00:27:29;;;;;;;15.80;12.57;;;;;;;;;;5023343;28;20193;-85
2022/05/02 00:30:33;;;;;;;14.70;12.60;;;;;;;;;;5042085;28;20177;-88
2022/05/02 00:33:38;;;;;;;14.73;12.60;;;;;;;;;;5011002;28;20163;-88
2022/05/02 00:36:43;;;;;;;14.53;12.30;;;;;;;;;;5022464;28;20232;-86
2022/05/02 00:39:47;;;;;;;13.50;12.10;;;;;;;;;;5019200;28;20177;-86
2022/05/02 00:42:51;;;;;;;16.07;14.00;;;;;;;;;;5042250;28;20173;-86
2022/05/02 00:45:56;;;;;;;14.43;12.93;;;;;;;;;;5011417;28;20220;-86
2022/05/02 00:49:00;;;;;;;13.77;12.27;;;;;;;;;;5042627;28;20177;-86
2022/05/02 00:52:05;;;;;;;18.03;12.73;;;;;;;;;;5043136;28;20204;-86
2022/05/02 00:55:10;;;;;;;13.80;12.17;;;;;;;;;;5013385;28;20221;-86
2022/05/02 00:58:15;;;;;;;16.27;13.13;;;;;;;;;;5001209;28;20181;-85
2022/05/02 01:01:20;;;;;;;15.43;13.27;;;;;;;;;;5023812;28;20181;-86
2022/05/02 01:04:24;;;;;;;15.67;13.27;;;;;;;;;;5023351;28;20193;-86
2022/05/02 01:07:29;;;;;;;16.20;13.67;;;;;;;;;;5021558;28;20560;-86
2022/05/02 01:10:34;;;;;;;14.90;12.87;;;;;;;;;;5032975;28;20201;-86
2022/05/02 01:13:44;;;;;;;14.33;12.83;;;;;;;;;;5024408;28;20189;-86
2022/05/02 01:16:49;;;;;;;16.83;13.00;;;;;;;;;;5037861;28;20200;-86
2022/05/02 01:19:53;;;;;;;14.33;12.10;;;;;;;;;;5031142;28;20193;-86
2022/05/02 01:22:57;;;;;;;17.57;13.73;;;;;;;;;;5022482;28;20197;-86
2022/05/02 01:26:02;;;;;;;17.80;13.53;;;;;;;;;;5018738;28;20679;-86
2022/05/02 01:29:06;;;;;;;19.77;13.03;;;;;;;;;;5031181;28;20185;-86
2022/05/02 01:32:12;;;;;;;15.10;12.80;;;;;;;;;;5015205;28;20549;-86
2022/05/02 01:35:16;;;;;;;16.30;13.87;;;;;;;;;;5023166;28;20229;-86
2022/05/02 01:38:20;;;;;;;18.80;13.97;;;;;;;;;;5043332;28;20624;-87
2022/05/02 01:41:25;;;;;;;17.97;14.47;;;;;;;;;;5042377;28;20173;-87
2022/05/02 01:44:31;;;;;;;16.13;13.50;;;;;;;;;;5011344;28;20193;-86
2022/05/02 01:47:35;;;;;;;16.30;13.77;;;;;;;;;;5002086;28;20634;-86
2022/05/02 01:50:39;;;;;;;17.47;14.87;;;;;;;;;;4997136;28;20528;-86
2022/05/02 01:53:43;;;;;;;16.13;13.43;;;;;;;;;;5021993;28;20205;-86
2022/05/02 01:56:47;;;;;;;16.50;12.40;;;;;;;;;;5008002;28;20200;-86
2022/05/02 01:59:52;;;;;;;15.97;13.40;;;;;;;;;;5036403;28;20185;-86
2022/05/02 02:02:56;;;;;;;16.40;13.07;;;;;;;;;;5021573;28;20174;-86
2022/05/02 02:06:00;;;;;;;19.37;13.70;;;;;;;;;;5029991;28;20222;-87
2022/05/02 02:09:04;;;;;;;22.00;14.80;;;;;;;;;;5029572;28;20200;-86
2022/05/02 02:12:09;;;;;;;18.33;14.97;;;;;;;;;;5041553;28;20549;-86
2022/05/02 02:15:14;;;;;;;17.27;14.70;;;;;;;;;;5004416;28;20229;-86
2022/05/02 02:18:19;;;;;;;20.00;16.47;;;;;;;;;;5010464;28;20197;-87
2022/05/02 02:21:23;;;;;;;18.67;15.70;;;;;;;;;;5052152;28;20200;-86
2022/05/02 02:24:27;;;;;;;21.77;15.67;;;;;;;;;;5040436;28;20177;-86
2022/05/02 02:27:32;;;;;;;18.63;15.50;;;;;;;;;;5040796;28;20185;-86
2022/05/02 02:30:36;;;;;;;17.17;14.57;;;;;;;;;;5012044;28;20205;-87
2022/05/02 02:33:41;;;;;;;19.77;16.33;;;;;;;;;;4989920;28;20226;-86
2022/05/02 02:36:45;;;;;;;19.10;15.53;;;;;;;;;;4994558;28;20229;-85
2022/05/02 02:39:49;;;;;;;21.40;18.03;;;;;;;;;;5015076;28;20192;-86
2022/05/02 02:42:53;;;;;;;22.53;16.30;;;;;;;;;;5039584;28;20181;-86
2022/05/02 02:45:57;;;;;;;21.30;17.03;;;;;;;;;;5028320;28;20216;-86
2022/05/02 02:49:01;;;;;;;21.53;17.00;;;;;;;;;;5028495;28;20184;-86
2022/05/02 02:52:07;;;;;;;23.37;17.20;;;;;;;;;;5030014;28;20236;-86
2022/05/02 02:55:11;;;;;;;23.13;18.47;;;;;;;;;;5038454;28;20213;-86
2022/05/02 02:58:15;;;;;;;20.87;16.60;;;;;;;;;;5028075;28;20513;-86
2022/05/02 03:01:19;;;;;;;23.00;18.63;;;;;;;;;;5010544;28;20193;-86
2022/05/02 03:07:47;;;;;;;24.17;18.70;;;;;;;;;;5019744;28;20625;-85
2022/05/02 03:10:52;;;;;;;24.00;19.07;;;;;;;;;;5003859;28;20193;-85
2022/05/02 03:13:56;;;;;;;24.70;19.40;;;;;;;;;;5004404;28;20205;-86
2022/05/02 03:17:00;;;;;;;24.03;19.07;;;;;;;;;;5026819;28;20209;-85
2022/05/02 03:20:05;;;;;;;25.17;19.80;;;;;;;;;;5020769;28;20196;-87
2022/05/02 03:23:10;;;;;;;27.67;20.70;;;;;;;;;;5051411;28;20173;-87
2022/05/02 03:26:14;;;;;;;25.60;20.83;;;;;;;;;;5005438;28;20221;-86
2022/05/02 03:29:18;;;;;;;27.83;21.23;;;;;;;;;;4988080;28;20186;-87
2022/05/02 03:32:22;;;;;;;28.23;20.90;;;;;;;;;;5002576;28;20204;-85
2022/05/02 03:35:27;;;;;;;26.23;19.17;;;;;;;;;;4998433;28;20245;-87
2022/05/02 03:38:31;;;;;;;24.50;18.83;;;;;;;;;;4989231;28;20178;-86
2022/05/02 03:41:35;;;;;;;27.07;20.20;;;;;;;;;;4977195;28;20182;-87
2022/05/02 03:44:39;;;;;;;26.13;20.97;;;;;;;;;;4989959;28;20178;-86
2022/05/02 03:47:44;;;;;;;31.10;23.03;;;;;;;;;;4993760;28;20186;-86
2022/05/02 03:50:48;;;;;;;30.60;23.23;;;;;;;;;;5037392;28;20188;-85
2022/05/02 03:53:52;;;;;;;28.77;22.13;;;;;;;;;;5038392;28;20204;-86
2022/05/02 03:56:56;;;;;;;29.33;22.37;;;;;;;;;;5030755;28;20189;-86
2022/05/02 04:00:01;;;;;;;26.70;20.67;;;;;;;;;;5033599;28;20193;-86
2022/05/02 04:03:05;;;;;;;25.90;20.43;;;;;;;;;;5020221;28;20177;-87
2022/05/02 04:06:09;;;;;;;25.70;20.03;;;;;;;;;;5006451;28;20557;-85
2022/05/02 04:09:13;;;;;;;25.10;20.57;;;;;;;;;;4988516;28;20178;-87
2022/05/02 04:12:17;;;;;;;24.80;19.50;;;;;;;;;;5038211;28;20189;-87
2022/05/02 04:15:21;;;;;;;22.87;18.07;;;;;;;;;;5010703;28;20225;-87
2022/05/02 04:18:25;;;;;;;25.20;19.67;;;;;;;;;;5017998;28;20178;-87
2022/05/02 04:21:30;;;;;;;22.57;18.43;;;;;;;;;;5056191;28;20176;-84
2022/05/02 04:24:34;;;;;;;23.43;17.90;;;;;;;;;;5061737;28;20177;-87
2022/05/02 04:27:39;;;;;;;23.87;16.77;;;;;;;;;;5044303;28;20196;-87
2022/05/02 04:30:43;;;;;;;22.57;17.30;;;;;;;;;;5031114;28;20181;-87
2022/05/02 04:33:47;;;;;;;24.30;17.73;;;;;;;;;;5016694;28;20205;-83
2022/05/02 04:36:52;;;;;;;23.90;17.53;;;;;;;;;;4994918;28;20197;-83
2022/05/02 04:39:56;;;;;;;23.90;17.80;;;;;;;;;;5029287;28;20177;-85
2022/05/02 04:43:00;;;;;;;20.23;16.33;;;;;;;;;;4986107;28;20522;-85
2022/05/02 04:46:04;;;;;;;21.30;16.87;;;;;;;;;;4995691;28;20224;-86
2022/05/02 04:49:08;;;;;;;23.50;17.73;;;;;;;;;;5025108;28;20181;-83
2022/05/02 04:52:12;;;;;;;20.80;16.80;;;;;;;;;;5021499;28;20196;-86
2022/05/02 04:55:17;;;;;;;22.90;16.83;;;;;;;;;;5036205;28;20212;-87
2022/05/02 04:58:21;;;;;;;17.80;14.87;;;;;;;;;;5036591;28;20185;-86
2022/05/02 05:01:25;;;;;;;16.70;14.37;;;;;;;;;;5026068;28;20185;-85
2022/05/02 05:04:30;;;;;;;17.50;15.00;;;;;;;;;;5010936;28;20185;-84
2022/05/02 05:07:36;;;;;;;18.80;15.60;;;;;;;;;;5036806;28;20181;-87
2022/05/02 05:11:05;;;;;;;19.70;14.80;;;;;;;;;;5014371;28;20197;-87
2022/05/02 05:18:24;;;;;;;19.57;15.57;;;;;;;;;;5015677;28;20649;-85
2022/05/02 05:21:32;;;;;;;23.73;15.53;;;;;;;;;;5008768;28;20186;-87
2022/05/02 05:24:55;;;;;;;21.70;16.90;;;;;;;;;;4996922;28;20179;-87
2022/05/02 05:28:26;;;;;;;22.27;17.17;;;;;;;;;;4985451;28;20630;-87
2022/05/02 05:31:40;;;;;;;20.57;16.40;;;;;;;;;;4985139;28;20245;-84
2022/05/02 05:34:55;;;;;;;19.77;16.20;;;;;;;;;;4999590;28;20229;-87
2022/05/02 05:38:01;;;;;;;20.00;15.93;;;;;;;;;;5036387;28;20185;-87
2022/05/02 05:41:37;;;;;;;17.30;15.27;;;;;;;;;;5034163;28;20620;-85
2022/05/02 05:44:51;;;;;;;18.37;16.00;;;;;;;;;;5028424;28;20217;-87
2022/05/02 05:47:58;;;;;;;20.00;14.73;;;;;;;;;;5031857;28;20185;-87
2022/05/02 05:51:27;;;;;;;20.97;15.27;;;;;;;;;;5004456;28;20190;-84
2022/05/02 05:54:39;;;;;;;17.73;15.60;;;;;;;;;;5006867;28;20196;-85
2022/05/02 05:58:09;;;;;;;19.77;15.87;;;;;;;;;;5045704;28;20549;-86
2022/05/02 06:01:45;;;;;;;21.90;16.50;;;;;;;;;;4998612;28;20193;-84
2022/05/02 06:04:51;;;;;;;19.40;16.60;;;;;;;;;;5015068;28;20565;-84
2022/05/02 06:07:55;;;;;;;21.90;17.13;;;;;;;;;;5015839;28;20205;-84
2022/05/02 06:11:00;;;;;;;26.90;18.50;;;;;;;;;;5026433;28;20196;-84
2022/05/02 06:14:05;;;;;;;24.30;19.07;;;;;;;;;;5034200;28;20208;-84
2022/05/02 06:20:35;;;;;;;23.60;18.60;;;;;;;;;;5022307;28;20185;-84
2022/05/02 06:23:42;;;;;;;20.83;17.90;;;;;;;;;;5009927;28;20186;-84
2022/05/02 06:26:47;;;;;;;20.43;18.23;;;;;;;;;;4991454;28;20181;-84
2022/05/02 06:29:51;;;;;;;19.43;17.33;;;;;;;;;;5010169;28;20181;-84
2022/05/02 06:33:04;;;;;;;21.43;18.33;;;;;;;;;;5022678;28;20185;-84
2022/05/02 06:36:37;;;;;;;23.60;19.90;;;;;;;;;;4983548;28;20233;-87
2022/05/02 06:40:01;;;;;;;21.07;17.73;;;;;;;;;;5000349;28;20205;-87
2022/05/02 06:43:20;;;;;;;21.67;18.07;;;;;;;;;;4989412;28;20201;-87
2022/05/02 06:46:29;;;;;;;21.70;18.60;;;;;;;;;;4972396;28;20241;-87
2022/05/02 06:49:35;;;;;;;25.23;19.57;;;;;;;;;;4995111;28;20297;-87
2022/05/02 06:53:15;;;;;;;23.53;19.57;;;;;;;;;;4972854;28;20185;-86
2022/05/02 06:56:45;;;;;;;27.07;19.13;;;;;;;;;;4991828;28;20233;-87
2022/05/02 07:00:06;;;;;;;23.93;19.33;;;;;;;;;;4986615;28;20193;-87
2022/05/02 07:03:55;;;;;;;22.07;18.70;;;;;;;;;;5026082;28;20203;-87
2022/05/02 07:07:11;;;;;;;30.67;19.30;;;;;;;;;;4987973;28;20201;-85
2022/05/02 07:10:23;;;;;;;24.63;18.10;;;;;;;;;;5014726;28;20568;-85
2022/05/02 07:13:53;;;;;;;25.17;17.10;;;;;;;;;;5020711;28;20216;-86
2022/05/02 07:17:05;;;;;;;17.27;14.73;;;;;;;;;;5015498;28;20203;-86
2022/05/02 07:20:31;;;;;;;17.67;13.80;;;;;;;;;;4993099;28;20189;-85
2022/05/02 07:23:50;;;;;;;14.33;12.80;;;;;;;;;;5009561;28;20200;-87
2022/05/02 07:27:13;;;;;;;14.90;11.90;;;;;;;;;;5006733;28;20192;-87
2022/05/02 07:30:21;;;;;;;14.37;12.57;;;;;;;;;;5027647;28;20217;-86
2022/05/02 07:33:34;;;;;;;13.37;11.13;;;;;;;;;;5019653;28;20192;-87
2022/05/02 07:36:40;;;;;;;14.13;11.47;;;;;;;;;;5012827;28;20248;-87
2022/05/02 07:39:45;;;;;;;12.23;10.20;;;;;;;;;;5012443;28;20188;-87
2022/05/02 07:42:51;;;;;;;11.30;10.10;;;;;;;;;;5014018;28;20212;-86
2022/05/02 07:45:56;;;;;;;13.07;10.20;;;;;;;;;;5003147;28;20216;-87
2022/05/02 07:49:03;;;;;;;12.27;9.80;;;;;;;;;;5012934;28;20659;-86
2022/05/02 07:52:08;;;;;;;11.87;10.13;;;;;;;;;;4993809;28;20182;-86
2022/05/02 07:55:14;;;;;;;10.20;9.13;;;;;;;;;;5015715;28;20244;-85
2022/05/02 07:58:19;;;;;;;10.43;8.90;;;;;;;;;;5044832;28;20197;-85
2022/05/02 08:01:25;;;;;;;10.27;8.47;;;;;;;;;;5010182;28;20538;-87
2022/05/02 08:04:29;;;;;;;9.07;8.07;;;;;;;;;;5013219;28;20177;-86
2022/05/02 08:07:41;;;;;;;11.90;9.13;;;;;;;;;;5029787;28;20196;-87
2022/05/02 08:10:51;;;;;;;12.97;8.83;;;;;;;;;;4999047;28;20537;-86
2022/05/02 08:14:15;;;;;;;8.80;7.60;;;;;;;;;;5021228;28;20209;-87
2022/05/02 08:17:22;;;;;;;9.83;7.90;;;;;;;;;;5016749;28;20194;-86
2022/05/02 08:20:46;;;;;;;8.40;7.40;;;;;;;;;;5004977;28;20185;-86
2022/05/02 08:27:51;;;;;;;7.67;6.33;;;;;;;;;;5020545;28;20192;-86
2022/05/02 08:31:12;;;;;;;7.10;6.40;;;;;;;;;;5020135;28;20185;-86
2022/05/02 08:34:40;;;;;;;7.57;6.87;;;;;;;;;;5036185;28;20212;-86
2022/05/02 08:38:12;;;;;;;7.50;6.63;;;;;;;;;;5022871;28;20188;-86
2022/05/02 08:41:29;;;;;;;7.00;5.90;;;;;;;;;;5023978;28;20196;-86
2022/05/02 08:45:10;;;;;;;6.80;6.10;;;;;;;;;;5036018;28;20177;-86
2022/05/02 08:48:24;;;;;;;6.80;6.10;;;;;;;;;;5021231;28;20196;-86
2022/05/02 08:52:09;;;;;;;6.93;6.17;;;;;;;;;;5047582;28;20517;-86
2022/05/02 08:56:04;;;;;;;8.47;5.40;;;;;;;;;;5026935;28;20225;-86
2022/05/02 08:59:37;;;;;;;6.37;5.20;;;;;;;;;;5008163;28;20657;-85
2022/05/02 09:02:52;;;;;;;6.03;5.27;;;;;;;;;;5027474;28;20529;-85
2022/05/02 09:06:21;;;;;;;7.00;5.00;;;;;;;;;;5005112;28;20221;-85
2022/05/02 09:09:43;;;;;;;5.63;5.03;;;;;;;;;;5003378;28;20185;-86
2022/05/02 09:13:06;;;;;;;8.13;5.30;;;;;;;;;;5018428;28;20189;-85
2022/05/02 09:16:56;;;;;;;5.20;4.70;;;;;;;;;;5016088;28;20213;-85
2022/05/02 09:20:24;;;;;;;4.70;4.20;;;;;;;;;;5004830;28;20625;-86
2022/05/02 09:23:34;;;;;;;6.43;4.80;;;;;;;;;;5027152;28;20182;-86
2022/05/02 09:26:41;;;;;;;5.57;3.97;;;;;;;;;;5016276;28;20589;-86
2022/05/02 09:30:12;;;;;;;5.40;4.00;;;;;;;;;;5009717;28;20546;-86
2022/05/02 09:33:36;;;;;;;3.80;3.50;;;;;;;;;;4984840;28;20183;-87
2022/05/02 09:36:44;;;;;;;6.17;4.33;;;;;;;;;;5002742;28;20221;-86
2022/05/02 09:40:08;;;;;;;4.23;3.83;;;;;;;;;;4996816;28;20524;-86
2022/05/02 09:49:33;;;;;;;4.60;4.20;;;;;;;;;;4999771;28;20194;-86
2022/05/02 09:51:15;;;;;;;6.07;4.33;;;;;;;;;;5018498;28;20204;-86
2022/05/02 09:58:35;;;;;;;5.97;4.53;;;;;;;;;;4996740;28;20180;-86
2022/05/02 10:01:47;;;;;;;4.30;3.90;;;;;;;;;;4994876;28;20191;-84
2022/05/02 10:05:05;;;;;;;4.00;3.60;;;;;;;;;;4999908;28;20220;-84
2022/05/02 10:08:34;;;;;;;4.47;4.07;;;;;;;;;;4997755;28;20196;-85
2022/05/02 10:12:03;;;;;;;4.57;4.17;;;;;;;;;;5018519;28;20181;-86
2022/05/02 10:15:22;;;;;;;4.93;4.20;;;;;;;;;;5004737;28;20221;-85
2022/05/02 10:18:44;;;;;;;5.90;4.60;;;;;;;;;;5004119;28;20186;-86
2022/05/02 10:22:04;;;;;;;5.33;4.83;;;;;;;;;;5005906;28;20197;-86
2022/05/02 10:25:27;;;;;;;5.87;5.27;;;;;;;;;;5016583;28;20217;-86
2022/05/02 10:29:02;;;;;;;5.93;5.20;;;;;;;;;;5016631;28;20185;-86
2022/05/02 10:32:18;;;;;;;5.63;5.13;;;;;;;;;;5002972;28;20193;-86
2022/05/02 10:35:26;;;;;;;7.23;5.20;;;;;;;;;;5027944;28;20228;-85
2022/05/02 10:38:34;;;;;;;5.73;5.10;;;;;;;;;;4999533;28;20190;-85
2022/05/02 10:41:45;;;;;;;8.83;5.50;;;;;;;;;;5016759;28;20201;-85
2022/05/02 10:45:16;;;;;;;5.83;5.30;;;;;;;;;;5034518;28;20208;-86
2022/05/02 10:48:46;;;;;;;8.17;5.80;;;;;;;;;;5034772;28;20521;-85
2022/05/02 10:52:10;;;;;;;6.77;5.87;;;;;;;;;;5019161;28;20181;-85
2022/05/02 10:55:37;;;;;;;6.37;5.43;;;;;;;;;;5025818;28;20566;-84
2022/05/02 10:58:43;;;;;;;7.60;5.33;;;;;;;;;;5017521;28;20193;-84
2022/05/02 11:02:18;;;;;;;5.80;5.20;;;;;;;;;;5023746;28;20193;-84
2022/05/02 11:05:28;;;;;;;5.80;5.20;;;;;;;;;;5003218;28;20217;-84
2022/05/02 11:08:35;;;;;;;6.73;5.47;;;;;;;;;;5023727;28;20201;-84
2022/05/02 11:11:49;;;;;;;7.57;5.60;;;;;;;;;;4995096;28;20182;-85
2022/05/02 11:15:02;;;;;;;6.07;5.47;;;;;;;;;;4984348;28;20237;-84
2022/05/02 11:22:05;;;;;;;6.00;5.40;;;;;;;;;;5007522;28;20185;-84
2022/05/02 11:25:22;;;;;;;5.80;5.10;;;;;;;;;;4995613;28;20213;-85
2022/05/02 11:28:58;;;;;;;7.67;5.53;;;;;;;;;;5009387;28;20629;-85
2022/05/02 11:32:05;;;;;;;5.07;4.57;;;;;;;;;;4997901;28;20540;-85
2022/05/02 11:35:16;;;;;;;7.07;5.07;;;;;;;;;;5025564;28;20696;-84
2022/05/02 11:38:46;;;;;;;7.03;6.00;;;;;;;;;;5015733;28;20174;-84
2022/05/02 11:41:52;;;;;;;6.53;5.30;;;;;;;;;;5031926;28;20189;-86
2022/05/02 11:45:13;;;;;;;5.80;5.20;;;;;;;;;;5027725;28;20209;-81
2022/05/02 11:48:30;;;;;;;6.43;5.20;;;;;;;;;;5015949;28;20205;-85
2022/05/02 11:51:50;;;;;;;5.83;5.30;;;;;;;;;;5032469;28;20188;-84
2022/05/02 11:54:57;;;;;;;5.30;4.73;;;;;;;;;;5023432;28;20564;-84
2022/05/02 11:58:08;;;;;;;7.43;5.20;;;;;;;;;;5037233;28;20181;-84
2022/05/02 12:01:20;;;;;;;4.93;4.43;;;;;;;;;;5037175;28;20185;-84
2022/05/02 12:04:29;;;;;;;5.50;4.57;;;;;;;;;;5022825;28;20190;-84
2022/05/02 12:07:33;;;;;;;5.47;4.97;;;;;;;;;;5018529;28;20177;-84
2022/05/02 12:10:48;;;;;;;6.67;4.70;;;;;;;;;;4995541;28;20641;-84
2022/05/02 12:13:55;;;;;;;7.83;4.60;;;;;;;;;;5007085;28;20198;-87
2022/05/02 12:17:03;;;;;;;5.40;4.03;;;;;;;;;;5017503;28;20173;-87
2022/05/02 12:20:22;;;;;;;5.23;4.73;;;;;;;;;;5016968;28;20181;-87
2022/05/02 12:23:33;;;;;;;4.53;4.13;;;;;;;;;;5018005;28;20184;-84
2022/05/02 12:26:52;;;;;;;4.97;4.40;;;;;;;;;;5018545;28;20220;-84
2022/05/02 12:29:58;;;;;;;7.07;4.50;;;;;;;;;;5019288;28;20187;-84
2022/05/02 12:33:04;;;;;;;4.97;4.30;;;;;;;;;;5018579;28;20634;-87
2022/05/02 12:36:19;;;;;;;5.60;5.00;;;;;;;;;;5017860;28;20231;-86
2022/05/02 12:39:35;;;;;;;5.60;4.97;;;;;;;;;;4993937;28;20194;-87
2022/05/02 12:43:10;;;;;;;4.60;3.83;;;;;;;;;;5016709;28;20182;-87
2022/05/02 12:46:17;;;;;;;4.63;4.23;;;;;;;;;;5004900;28;20214;-87
2022/05/02 12:49:38;;;;;;;4.90;4.40;;;;;;;;;;5005013;28;20184;-87
2022/05/02 12:52:51;;;;;;;4.83;4.20;;;;;;;;;;5016692;28;20184;-84
2022/05/02 12:56:00;;;;;;;4.97;4.13;;;;;;;;;;5016383;28;20236;-86
2022/05/02 13:02:34;;;;;;;6.47;4.40;;;;;;;;;;5012876;28;20219;-84
2022/05/02 13:05:58;;;;;;;4.43;4.00;;;;;;;;;;5006178;28;20695;-84
2022/05/02 13:09:16;;;;;;;5.73;4.47;;;;;;;;;;5018617;28;20192;-84
2022/05/02 13:12:22;;;;;;;6.30;5.07;;;;;;;;;;5017820;28;20529;-84
2022/05/02 13:15:28;;;;;;;4.93;4.40;;;;;;;;;;5018615;28;20573;-84
2022/05/02 13:18:44;;;;;;;5.50;4.97;;;;;;;;;;5036630;28;20191;-86
2022/05/02 13:21:56;;;;;;;4.67;4.13;;;;;;;;;;5016680;28;20273;-86
2022/05/02 13:25:02;;;;;;;4.60;3.90;;;;;;;;;;5015702;28;20225;-86
2022/05/02 13:28:07;;;;;;;4.97;4.47;;;;;;;;;;5015722;28;20190;-88
2022/05/02 13:31:20;;;;;;;4.73;4.33;;;;;;;;;;4998285;28;20186;-87
2022/05/02 13:34:51;;;;;;;5.87;4.47;;;;;;;;;;5026610;28;20200;-86
2022/05/02 13:38:06;;;;;;;5.07;4.50;;;;;;;;;;4997434;28;20534;-85
2022/05/02 13:41:14;;;;;;;5.77;4.87;;;;;;;;;;5007834;28;20200;-86
2022/05/02 13:44:45;;;;;;;5.47;4.83;;;;;;;;;;4975449;28;20204;-86
2022/05/02 13:48:01;;;;;;;4.70;4.30;;;;;;;;;;4985073;28;20172;-88
2022/05/02 13:51:19;;;;;;;5.43;4.50;;;;;;;;;;4985221;28;20185;-86
2022/05/02 13:54:28;;;;;;;5.70;4.27;;;;;;;;;;4985941;28;20183;-86
2022/05/02 13:57:34;;;;;;;4.60;4.20;;;;;;;;;;4985181;28;20179;-85
2022/05/02 14:04:20;;;;;;;5.97;4.60;;;;;;;;;;4995921;28;20533;-86
2022/05/02 14:07:25;;;;;;;7.43;4.90;;;;;;;;;;4974589;28;20617;-85
2022/05/02 14:10:30;;;;;;;5.30;4.50;;;;;;;;;;4984029;28;20180;-88
2022/05/02 14:13:34;;;;;;;7.20;4.40;;;;;;;;;;4972493;28;20185;-88
2022/05/02 14:16:38;;;;;;;6.97;5.10;;;;;;;;;;4982790;28;20557;-88
2022/05/02 14:19:42;;;;;;;8.77;5.40;;;;;;;;;;5006523;28;20183;-85
2022/05/02 14:22:58;;;;;;;6.00;5.03;;;;;;;;;;4995094;28;20192;-85
2022/05/02 14:26:11;;;;;;;6.37;4.70;;;;;;;;;;4972613;28;20208;-85
2022/05/02 14:29:16;;;;;;;5.07;4.53;;;;;;;;;;4995169;28;20178;-85
2022/05/02 14:32:20;;;;;;;4.47;4.07;;;;;;;;;;4983221;28;20200;-88
2022/05/02 14:35:37;;;;;;;5.73;3.90;;;;;;;;;;4994151;28;20224;-88
2022/05/02 14:38:43;;;;;;;5.27;4.77;;;;;;;;;;4972377;28;20194;-88
2022/05/02 14:41:48;;;;;;;7.00;4.63;;;;;;;;;;4995112;28;20182;-85
2022/05/02 14:44:52;;;;;;;4.87;4.33;;;;;;;;;;4983749;28;20223;-85
2022/05/02 14:47:58;;;;;;;6.60;4.47;;;;;;;;;;4983808;28;20184;-85
2022/05/02 14:51:04;;;;;;;4.90;4.50;;;;;;;;;;4997147;28;20197;-86
2022/05/02 14:54:11;;;;;;;5.13;4.63;;;;;;;;;;5022977;28;20179;-86
2022/05/02 14:57:18;;;;;;;6.83;4.67;;;;;;;;;;5022693;28;20205;-85
2022/05/02 15:00:23;;;;;;;5.43;4.93;;;;;;;;;;5034218;28;20179;-85
2022/05/02 15:03:31;;;;;;;5.20;4.70;;;;;;;;;;5019954;28;20199;-85
2022/05/02 15:06:36;;;;;;;7.27;5.33;;;;;;;;;;5019314;28;20204;-85
2022/05/02 15:13:37;;;;;;;6.80;3.90;;;;;;;;;;5021360;28;20189;-85
2022/05/02 15:16:55;;;;;;;5.13;4.50;;;;;;;;;;4994358;28;20578;-85
2022/05/02 15:20:22;;;;;;;7.60;4.80;;;;;;;;;;4983626;28;20179;-86
2022/05/02 15:23:26;;;;;;;5.10;4.60;;;;;;;;;;4997358;28;20185;-85
2022/05/02 15:26:50;;;;;;;5.53;4.93;;;;;;;;;;5000972;28;20217;-85
2022/05/02 15:37:20;;;;;;;7.20;5.37;;;;;;;;;;5069796;28;20208;-84
2022/05/02 15:40:39;;;;;;;5.27;4.73;;;;;;;;;;5025864;28;20668;-87
2022/05/02 15:43:54;;;;;;;5.83;5.13;;;;;;;;;;5001243;28;20194;-87
2022/05/02 15:47:03;;;;;;;5.80;5.30;;;;;;;;;;5013133;28;20193;-87
2022/05/02 15:50:13;;;;;;;5.57;5.00;;;;;;;;;;5017190;28;20189;-87
2022/05/02 15:53:21;;;;;;;7.50;4.97;;;;;;;;;;4982691;28;20194;-87
2022/05/02 15:56:25;;;;;;;6.33;5.37;;;;;;;;;;5023948;28;20213;-87
2022/05/02 15:59:44;;;;;;;5.80;5.20;;;;;;;;;;5005455;28;20197;-87
2022/05/02 16:03:03;;;;;;;5.50;5.00;;;;;;;;;;5014459;28;20186;-88
2022/05/02 16:06:22;;;;;;;5.87;5.37;;;;;;;;;;5026988;28;20529;-89
2022/05/02 16:12:53;;;;;;;6.73;4.63;;;;;;;;;;5028440;28;20198;-88
2022/05/02 16:15:58;;;;;;;8.87;5.67;;;;;;;;;;5021279;28;20213;-88
2022/05/02 16:19:03;;;;;;;4.67;3.83;;;;;;;;;;5001878;28;20193;-89
2022/05/02 16:22:13;;;;;;;4.97;3.30;;;;;;;;;;5031936;28;20192;-88
2022/05/02 16:25:28;;;;;;;6.63;2.67;;;;;;;;;;5004366;28;20222;-89
2022/05/02 16:28:34;;;;;;;3.40;2.40;;;;;;;;;;4996468;28;20533;-88
2022/05/02 16:31:38;;;;;;;3.53;2.30;;;;;;;;;;5012883;28;20186;-87
2022/05/02 16:34:43;;;;;;;3.73;2.80;;;;;;;;;;5017291;28;20232;-87
2022/05/02 16:37:48;;;;;;;2.93;2.63;;;;;;;;;;5037639;28;20202;-87
2022/05/02 16:40:55;;;;;;;5.97;3.10;;;;;;;;;;5019603;28;20206;-88
2022/05/02 16:44:01;;;;;;;3.17;2.80;;;;;;;;;;5005163;28;20205;-88
2022/05/02 16:47:05;;;;;;;3.40;3.07;;;;;;;;;;5016343;28;20182;-88
2022/05/02 16:50:13;;;;;;;5.33;3.60;;;;;;;;;;5027792;28;20632;-88
2022/05/02 16:53:19;;;;;;;7.83;3.30;;;;;;;;;;5027918;28;20625;-88
2022/05/02 16:56:25;;;;;;;7.03;3.43;;;;;;;;;;5015739;28;20217;-88
2022/05/02 16:59:33;;;;;;;5.70;4.13;;;;;;;;;;5004991;28;20186;-87
2022/05/02 17:02:38;;;;;;;7.40;4.70;;;;;;;;;;5004685;28;20197;-88
2022/05/02 17:05:44;;;;;;;6.43;3.87;;;;;;;;;;5010096;28;20217;-88
2022/05/02 17:08:49;;;;;;;5.67;3.90;;;;;;;;;;5015499;28;20193;-87
2022/05/02 17:11:53;;;;;;;4.63;4.10;;;;;;;;;;5033314;28;20663;-88
2022/05/02 17:14:58;;;;;;;7.00;4.00;;;;;;;;;;5047123;28;20544;-88
2022/05/02 17:18:03;;;;;;;4.20;3.80;;;;;;;;;;5038915;28;20212;-88
2022/05/02 17:21:13;;;;;;;6.17;4.30;;;;;;;;;;5016461;28;20205;-88
2022/05/02 17:24:20;;;;;;;6.07;4.27;;;;;;;;;;5016687;28;20194;-91
2022/05/02 17:27:28;;;;;;;5.57;4.20;;;;;;;;;;5004784;28;20660;-89
2022/05/02 17:30:33;;;;;;;5.80;4.40;;;;;;;;;;5015539;28;20672;-89
2022/05/02 17:33:46;;;;;;;6.17;4.10;;;;;;;;;;5023009;28;20201;-88
2022/05/02 17:36:53;;;;;;;8.40;4.83;;;;;;;;;;5006660;28;20201;-89
2022/05/02 17:43:22;;;;;;;5.10;4.60;;;;;;;;;;5025117;28;20197;-89
2022/05/02 17:46:39;;;;;;;4.97;4.03;;;;;;;;;;5029210;28;20217;-89
2022/05/02 17:49:55;;;;;;;10.00;5.70;;;;;;;;;;5022604;28;20509;-89
2022/05/02 17:53:04;;;;;;;7.40;5.20;;;;;;;;;;5027206;28;20193;-89
2022/05/02 17:56:39;;;;;;;9.63;5.07;;;;;;;;;;5016699;28;20221;-88
2022/05/02 17:59:43;;;;;;;8.73;4.90;;;;;;;;;;5024975;28;20189;-88
2022/05/02 18:02:48;;;;;;;6.50;5.20;;;;;;;;;;5027685;28;20180;-87
2022/05/02 18:05:53;;;;;;;6.97;4.70;;;;;;;;;;5034475;28;20212;-87
2022/05/02 18:09:01;;;;;;;7.60;5.10;;;;;;;;;;5022731;28;20181;-86
2022/05/02 18:12:33;;;;;;;9.60;5.10;;;;;;;;;;4995726;28;20542;-88
2022/05/02 18:15:45;;;;;;;6.87;5.07;;;;;;;;;;4972939;28;20214;-89
2022/05/02 18:18:57;;;;;;;9.40;5.03;;;;;;;;;;5008114;28;20181;-89
2022/05/02 18:22:08;;;;;;;12.97;4.47;;;;;;;;;;5017888;28;20523;-89
2022/05/02 18:25:12;;;;;;;6.73;4.83;;;;;;;;;;4983632;28;20293;-89
2022/05/02 18:28:38;;;;;;;8.27;4.97;;;;;;;;;;4972632;28;20197;-87
2022/05/02 18:31:44;;;;;;;6.93;4.00;;;;;;;;;;4987790;28;20189;-90
2022/05/02 18:38:48;;;;;;;5.43;4.23;;;;;;;;;;5016049;28;20209;-88
2022/05/02 18:42:06;;;;;;;8.33;4.90;;;;;;;;;;5022551;28;20197;-88
2022/05/02 18:55:51;;;;;;;7.50;4.50;;;;;;;;;;5016934;28;20225;-89
2022/05/02 18:58:59;;;;;;;5.07;4.57;;;;;;;;;;5004626;28;20170;-89
2022/05/02 19:02:06;;;;;;;6.53;4.47;;;;;;;;;;5034749;28;20193;-88
2022/05/02 19:05:18;;;;;;;5.93;4.77;;;;;;;;;;5013034;28;20220;-89
2022/05/02 19:08:23;;;;;;;8.57;4.70;;;;;;;;;;5035607;28;20188;-89
2022/05/02 19:11:28;;;;;;;6.47;5.30;;;;;;;;;;5034566;28;20536;-88
2022/05/02 19:14:34;;;;;;;6.00;4.97;;;;;;;;;;5029065;28;20198;-89
2022/05/02 19:17:41;;;;;;;5.67;5.03;;;;;;;;;;4973406;28;20205;-89
2022/05/02 19:21:11;;;;;;;7.80;5.57;;;;;;;;;;5011819;28;20200;-90
2022/05/02 19:24:55;;;;;;;7.20;5.47;;;;;;;;;;5019625;28;20193;-90
2022/05/02 19:28:01;;;;;;;6.70;5.70;;;;;;;;;;5003463;28;20198;-89
2022/05/02 19:31:16;;;;;;;9.30;5.77;;;;;;;;;;5031887;28;20190;-91
2022/05/02 19:41:55;;;;;;;7.47;5.87;;;;;;;;;;5034234;28;20185;-90
2022/05/02 19:45:00;;;;;;;8.33;5.80;;;;;;;;;;5019691;28;20684;-90
2022/05/02 19:48:11;;;;;;;7.87;6.37;;;;;;;;;;5000434;28;20192;-90
2022/05/02 19:51:20;;;;;;;10.27;6.97;;;;;;;;;;5015730;28;20197;-90
2022/05/02 19:54:25;;;;;;;11.27;6.70;;;;;;;;;;5021561;28;20190;-89
2022/05/02 19:57:29;;;;;;;7.47;6.60;;;;;;;;;;5013110;28;20664;-89
2022/05/02 20:00:34;;;;;;;8.40;6.60;;;;;;;;;;4991427;28;20213;-89
2022/05/02 20:03:40;;;;;;;8.47;7.07;;;;;;;;;;5021063;28;20533;-90
2022/05/02 20:06:44;;;;;;;8.37;6.67;;;;;;;;;;4980120;28;20213;-90